createdAt,value
2022-07-29T00:00:02.238Z,17.66
2022-07-29T00:02:29.516Z,17.66
2022-07-29T00:04:56.827Z,17.72
2022-07-29T00:07:23.829Z,17.49
2022-07-29T00:09:52.631Z,17.40
2022-07-29T00:12:25.034Z,17.18
2022-07-29T00:14:54.014Z,17.59
2022-07-29T00:17:27.162Z,17.39
2022-07-29T00:19:54.149Z,17.48
2022-07-29T00:22:21.728Z,17.68
2022-07-29T00:24:49.787Z,17.58
2022-07-29T00:27:16.986Z,17.38
2022-07-29T00:29:44.065Z,17.73
2022-07-29T00:32:10.997Z,17.39
2022-07-29T00:34:56.844Z,17.70
2022-07-29T00:37:23.925Z,17.45
2022-07-29T00:39:53.792Z,17.33
2022-07-29T00:42:21.117Z,17.60
2022-07-29T00:44:48.073Z,17.36
2022-07-29T00:47:15.034Z,17.33
2022-07-29T00:49:45.681Z,17.29
2022-07-29T00:52:13.004Z,17.65
2022-07-29T00:54:44.768Z,17.53
2022-07-29T00:57:12.920Z,17.35
2022-07-29T00:59:40.102Z,17.42
2022-07-29T01:02:07.265Z,17.29
2022-07-29T01:04:34.290Z,17.59
2022-07-29T01:07:02.771Z,17.18
2022-07-29T01:09:37.289Z,17.17
2022-07-29T01:12:22.968Z,17.40
2022-07-29T01:14:50.995Z,17.32
2022-07-29T01:17:28.596Z,17.14
2022-07-29T01:20:16.869Z,16.94
2022-07-29T01:23:08.680Z,17.33
2022-07-29T01:26:02.869Z,17.30
2022-07-29T01:29:08.479Z,17.29
2022-07-29T01:31:59.749Z,17.27
2022-07-29T01:34:49.953Z,17.28
2022-07-29T01:37:24.888Z,17.32
2022-07-29T01:39:53.887Z,17.22
2022-07-29T01:42:26.666Z,17.31
2022-07-29T01:45:05.486Z,17.30
2022-07-29T01:47:38.705Z,17.04
2022-07-29T01:50:08.885Z,17.05
2022-07-29T01:52:48.421Z,17.13
2022-07-29T01:55:16.289Z,17.18
2022-07-29T01:57:48.046Z,17.07
2022-07-29T02:00:15.910Z,17.23
2022-07-29T02:02:46.780Z,17.11
2022-07-29T02:05:18.536Z,17.08
2022-07-29T02:07:46.067Z,17.25
2022-07-29T02:10:13.698Z,16.16
2022-07-29T02:12:40.893Z,16.86
2022-07-29T02:15:08.157Z,17.07
2022-07-29T02:17:45.104Z,16.96
2022-07-29T02:20:12.681Z,17.08
2022-07-29T02:22:40.877Z,17.19
2022-07-29T02:25:13.819Z,17.10
2022-07-29T02:27:44.093Z,17.06
2022-07-29T02:30:12.812Z,16.84
2022-07-29T02:32:40.731Z,17.02
2022-07-29T02:35:09.257Z,16.88
2022-07-29T02:37:37.734Z,16.95
2022-07-29T02:40:05.034Z,17.05
2022-07-29T02:42:32.004Z,16.94
2022-07-29T02:44:59.348Z,16.78
2022-07-29T02:47:41.951Z,16.92
2022-07-29T02:50:18.908Z,17.08
2022-07-29T02:52:48.966Z,16.72
2022-07-29T02:55:31.112Z,17.12
2022-07-29T02:58:07.261Z,17.13
2022-07-29T03:00:36.779Z,16.97
2022-07-29T03:03:05.724Z,16.90
2022-07-29T03:05:32.669Z,16.99
2022-07-29T03:08:05.738Z,16.92
2022-07-29T03:10:32.932Z,16.70
2022-07-29T03:13:00.007Z,16.89
2022-07-29T03:15:27.109Z,16.83
2022-07-29T03:17:54.099Z,16.84
2022-07-29T03:20:24.109Z,17.04
2022-07-29T03:22:54.455Z,16.66
2022-07-29T03:25:21.688Z,16.62
2022-07-29T03:27:49.207Z,17.06
2022-07-29T03:30:21.883Z,16.90
2022-07-29T03:32:51.828Z,16.92
2022-07-29T03:35:23.800Z,16.95
2022-07-29T03:37:53.612Z,16.98
2022-07-29T03:40:40.254Z,16.61
2022-07-29T03:43:07.570Z,16.97
2022-07-29T03:45:34.589Z,16.46
2022-07-29T03:48:10.317Z,16.96
2022-07-29T03:50:37.614Z,16.73
2022-07-29T03:53:04.669Z,16.67
2022-07-29T03:55:44.347Z,16.93
2022-07-29T03:58:15.117Z,16.92
2022-07-29T04:00:43.375Z,16.79
2022-07-29T04:03:11.837Z,16.87
2022-07-29T04:05:38.926Z,16.65
2022-07-29T04:08:06.349Z,16.70
2022-07-29T04:10:36.383Z,16.65
2022-07-29T04:13:03.443Z,16.31
2022-07-29T04:15:31.054Z,16.81
2022-07-29T04:17:59.806Z,16.76
2022-07-29T04:20:26.859Z,16.51
2022-07-29T04:22:53.989Z,16.62
2022-07-29T04:25:21.259Z,16.56
2022-07-29T04:28:03.287Z,16.40
2022-07-29T04:30:31.440Z,16.82
2022-07-29T04:32:58.413Z,16.41
2022-07-29T04:35:25.546Z,16.24
2022-07-29T04:37:52.734Z,16.88
2022-07-29T04:40:19.954Z,16.51
2022-07-29T04:42:48.058Z,16.75
2022-07-29T04:45:22.350Z,16.34
2022-07-29T04:47:50.060Z,16.85
2022-07-29T04:50:17.066Z,16.91
2022-07-29T04:52:44.034Z,16.82
2022-07-29T04:55:11.077Z,16.67
2022-07-29T04:57:38.242Z,16.65
2022-07-29T05:00:06.343Z,16.46
2022-07-29T05:02:33.480Z,16.23
2022-07-29T05:05:00.481Z,16.57
2022-07-29T05:07:27.466Z,16.55
2022-07-29T05:09:54.694Z,16.90
2022-07-29T05:12:21.684Z,16.67
2022-07-29T05:14:48.644Z,16.56
2022-07-29T05:17:16.223Z,16.79
2022-07-29T05:19:43.363Z,16.59
2022-07-29T05:22:10.343Z,16.95
2022-07-29T05:24:37.645Z,16.74
2022-07-29T05:27:04.861Z,16.98
2022-07-29T05:29:44.297Z,17.11
2022-07-29T05:32:13.819Z,16.78
2022-07-29T05:34:50.243Z,16.80
2022-07-29T05:37:20.133Z,16.93
2022-07-29T05:39:50.440Z,16.97
2022-07-29T05:42:24.609Z,16.99
2022-07-29T05:44:51.954Z,17.02
2022-07-29T05:47:18.892Z,17.23
2022-07-29T05:49:46.317Z,17.25
2022-07-29T05:52:14.521Z,16.98
2022-07-29T05:54:41.606Z,17.24
2022-07-29T05:57:08.855Z,16.81
2022-07-29T05:59:39.012Z,16.93
2022-07-29T06:02:08.687Z,17.12
2022-07-29T06:04:35.863Z,16.79
2022-07-29T06:07:03.030Z,16.92
2022-07-29T06:09:30.283Z,16.99
2022-07-29T06:11:57.353Z,17.08
2022-07-29T06:14:24.356Z,17.01
2022-07-29T06:16:51.348Z,16.90
2022-07-29T06:19:18.640Z,17.07
2022-07-29T06:21:46.429Z,17.13
2022-07-29T06:24:15.086Z,16.91
2022-07-29T06:26:43.204Z,17.05
2022-07-29T06:29:11.707Z,16.76
2022-07-29T06:31:39.012Z,16.76
2022-07-29T06:34:06.156Z,16.65
2022-07-29T06:36:36.090Z,17.05
2022-07-29T06:39:06.765Z,16.90
2022-07-29T06:41:34.768Z,16.87
2022-07-29T06:44:01.743Z,16.70
2022-07-29T06:46:29.363Z,17.02
2022-07-29T06:48:56.436Z,16.72
2022-07-29T06:51:24.096Z,16.65
2022-07-29T06:54:00.394Z,16.95
2022-07-29T06:56:38.437Z,16.87
2022-07-29T06:59:10.910Z,16.73
2022-07-29T07:01:39.113Z,16.42
2022-07-29T07:04:06.619Z,16.93
2022-07-29T07:06:33.535Z,16.79
2022-07-29T07:09:00.500Z,15.95
2022-07-29T07:11:27.568Z,16.53
2022-07-29T07:13:58.092Z,16.82
2022-07-29T07:16:27.912Z,16.70
2022-07-29T07:18:54.877Z,17.04
2022-07-29T07:21:21.907Z,16.67
2022-07-29T07:23:49.023Z,16.96
2022-07-29T07:26:16.228Z,17.03
2022-07-29T07:28:43.389Z,17.04
2022-07-29T07:31:10.742Z,17.07
2022-07-29T07:33:37.773Z,16.71
2022-07-29T07:36:04.868Z,17.10
2022-07-29T07:38:31.822Z,16.77
2022-07-29T07:40:59.881Z,16.81
2022-07-29T07:43:26.974Z,17.15
2022-07-29T07:45:53.990Z,16.84
2022-07-29T07:48:24.108Z,16.92
2022-07-29T07:50:54.185Z,17.50
2022-07-29T07:53:22.178Z,17.20
2022-07-29T07:58:36.410Z,17.88
2022-07-29T08:01:04.231Z,17.64
2022-07-29T08:03:31.319Z,17.95
2022-07-29T08:05:58.706Z,17.95
2022-07-29T08:08:25.802Z,18.05
2022-07-29T08:11:02.167Z,18.04
2022-07-29T08:13:33.049Z,17.94
2022-07-29T08:16:02.253Z,18.21
2022-07-29T08:18:31.912Z,18.14
2022-07-29T08:20:59.838Z,17.91
2022-07-29T08:23:32.877Z,18.48
2022-07-29T08:26:16.548Z,18.33
2022-07-29T08:28:47.067Z,18.50
2022-07-29T08:31:15.679Z,18.36
2022-07-29T08:33:43.684Z,18.65
2022-07-29T08:36:10.951Z,18.42
2022-07-29T08:38:38.041Z,18.47
2022-07-29T08:41:05.044Z,18.66
2022-07-29T08:43:33.275Z,18.65
2022-07-29T08:46:00.540Z,18.60
2022-07-29T08:48:27.558Z,18.57
2022-07-29T08:50:57.403Z,18.64
2022-07-29T08:53:28.105Z,18.48
2022-07-29T08:55:55.909Z,18.69
2022-07-29T08:58:24.748Z,18.83
2022-07-29T09:00:57.982Z,18.78
2022-07-29T09:03:27.337Z,18.60
2022-07-29T09:05:54.291Z,18.77
2022-07-29T09:08:21.353Z,18.88
2022-07-29T09:10:48.741Z,18.59
2022-07-29T09:13:15.981Z,18.71
2022-07-29T09:15:43.003Z,18.83
2022-07-29T09:18:30.310Z,18.75
2022-07-29T09:21:15.831Z,18.79
2022-07-29T09:24:03.303Z,18.76
2022-07-29T09:26:34.547Z,18.57
2022-07-29T09:29:02.678Z,18.38
2022-07-29T09:31:40.942Z,18.54
2022-07-29T09:34:08.617Z,18.76
2022-07-29T09:36:47.217Z,18.67
2022-07-29T09:39:17.771Z,18.37
2022-07-29T09:41:55.062Z,18.56
2022-07-29T09:44:23.106Z,18.75
2022-07-29T09:46:57.816Z,18.80
2022-07-29T09:49:26.009Z,18.70
2022-07-29T09:52:08.986Z,18.27
2022-07-29T09:54:39.992Z,18.94
2022-07-29T09:57:28.644Z,18.97
2022-07-29T10:00:16.066Z,19.14
2022-07-29T10:02:45.580Z,19.26
2022-07-29T10:05:26.437Z,19.27
2022-07-29T10:07:57.455Z,19.13
2022-07-29T10:10:32.659Z,19.12
2022-07-29T10:13:07.202Z,19.08
2022-07-29T10:15:40.182Z,19.13
2022-07-29T10:18:08.992Z,19.35
2022-07-29T10:20:36.699Z,19.08
2022-07-29T10:23:03.804Z,19.26
2022-07-29T10:25:31.479Z,19.70
2022-07-29T10:27:58.898Z,19.64
2022-07-29T10:30:27.535Z,19.67
2022-07-29T10:33:32.206Z,19.55
2022-07-29T10:36:43.281Z,19.88
2022-07-29T10:39:48.885Z,19.97
2022-07-29T10:42:34.181Z,19.97
2022-07-29T10:45:04.379Z,20.19
2022-07-29T10:47:31.612Z,20.27
2022-07-29T10:50:05.600Z,20.37
2022-07-29T10:52:51.160Z,20.44
2022-07-29T10:55:43.321Z,20.35
2022-07-29T10:58:26.394Z,20.54
2022-07-29T11:00:54.927Z,20.52
2022-07-29T11:07:03.999Z,20.73
2022-07-29T11:09:37.575Z,20.75
2022-07-29T11:12:37.217Z,20.97
2022-07-29T11:15:22.637Z,20.74
2022-07-29T11:17:55.005Z,21.11
2022-07-29T11:20:43.050Z,21.16
2022-07-29T11:23:33.489Z,21.20
2022-07-29T11:26:10.917Z,21.21
2022-07-29T11:31:44.016Z,21.29
2022-07-29T11:34:32.026Z,21.23
2022-07-29T11:37:14.637Z,21.41
2022-07-29T11:39:48.069Z,21.51
2022-07-29T11:42:18.102Z,21.59
2022-07-29T11:45:43.678Z,21.52
2022-07-29T11:48:29.643Z,21.27
2022-07-29T11:50:56.459Z,21.43
2022-07-29T11:53:25.368Z,21.51
2022-07-29T11:55:56.240Z,21.55
2022-07-29T11:58:25.990Z,21.64
2022-07-29T12:00:55.531Z,21.23
2022-07-29T12:06:18.061Z,21.40
2022-07-29T12:07:02.500Z,21.55
2022-07-29T12:07:03.360Z,21.23
2022-07-29T12:08:47.473Z,21.78
2022-07-29T12:11:23.498Z,21.84
2022-07-29T12:13:52.203Z,21.85
2022-07-29T12:16:25.341Z,21.98
2022-07-29T12:18:58.165Z,21.72
2022-07-29T12:21:25.593Z,21.81
2022-07-29T12:24:08.973Z,21.74
2022-07-29T12:26:36.560Z,21.87
2022-07-29T12:29:04.103Z,21.99
2022-07-29T12:31:42.303Z,21.73
2022-07-29T12:34:13.097Z,21.79
2022-07-29T12:36:40.960Z,21.85
2022-07-29T12:39:08.236Z,22.14
2022-07-29T12:41:35.779Z,22.16
2022-07-29T12:44:02.715Z,22.08
2022-07-29T12:46:29.785Z,22.27
2022-07-29T12:48:57.806Z,22.09
2022-07-29T12:51:38.969Z,22.19
2022-07-29T12:54:16.383Z,22.35
2022-07-29T12:56:45.456Z,22.26
2022-07-29T12:59:22.924Z,22.05
2022-07-29T13:01:51.862Z,22.52
2022-07-29T13:04:27.059Z,22.62
2022-07-29T13:07:05.224Z,22.40
2022-07-29T13:09:43.245Z,22.79
2022-07-29T13:12:13.025Z,22.31
2022-07-29T13:14:48.204Z,22.47
2022-07-29T13:17:18.177Z,23.13
2022-07-29T13:19:47.759Z,23.04
2022-07-29T13:22:17.182Z,23.14
2022-07-29T13:24:50.988Z,23.40
2022-07-29T13:27:18.957Z,23.16
2022-07-29T13:29:52.326Z,23.05
2022-07-29T13:32:28.279Z,23.13
2022-07-29T13:35:05.592Z,23.14
2022-07-29T13:37:35.374Z,23.26
2022-07-29T13:40:04.638Z,23.50
2022-07-29T13:42:33.429Z,23.84
2022-07-29T13:45:03.831Z,23.88
2022-07-29T13:47:32.221Z,23.68
2022-07-29T13:50:05.364Z,23.54
2022-07-29T13:52:34.458Z,23.61
2022-07-29T13:55:01.796Z,23.82
2022-07-29T13:57:28.953Z,23.58
2022-07-29T13:59:56.222Z,23.80
2022-07-29T14:02:25.320Z,23.97
2022-07-29T14:04:54.677Z,23.95
2022-07-29T14:07:22.429Z,24.17
2022-07-29T14:09:51.865Z,24.01
2022-07-29T14:12:21.181Z,24.43
2022-07-29T14:14:48.263Z,24.11
2022-07-29T14:17:16.347Z,24.52
2022-07-29T14:19:44.122Z,24.58
2022-07-29T14:22:11.154Z,24.54
2022-07-29T14:24:38.753Z,24.58
2022-07-29T14:27:06.487Z,24.81
2022-07-29T14:29:37.775Z,24.78
2022-07-29T14:32:08.463Z,24.80
2022-07-29T14:34:36.623Z,24.94
2022-07-29T14:37:06.418Z,24.56
2022-07-29T14:39:36.921Z,24.55
2022-07-29T14:42:06.701Z,24.59
2022-07-29T14:44:33.921Z,24.81
2022-07-29T14:47:08.056Z,24.66
2022-07-29T14:49:36.066Z,24.51
2022-07-29T14:52:03.649Z,24.66
2022-07-29T14:54:30.734Z,24.69
2022-07-29T14:56:58.681Z,24.43
2022-07-29T14:59:27.150Z,24.82
2022-07-29T15:01:54.417Z,24.51
2022-07-29T15:04:22.133Z,24.59
2022-07-29T15:06:49.900Z,24.73
2022-07-29T15:09:16.957Z,24.66
2022-07-29T15:11:44.046Z,24.92
2022-07-29T15:14:13.831Z,24.84
2022-07-29T15:16:43.607Z,25.11
2022-07-29T15:19:14.726Z,25.00
2022-07-29T15:21:48.381Z,24.77
2022-07-29T15:24:17.901Z,24.92
2022-07-29T15:26:48.581Z,25.21
2022-07-29T15:29:16.627Z,25.09
2022-07-29T15:31:44.537Z,25.08
2022-07-29T15:34:11.864Z,24.90
2022-07-29T15:36:54.586Z,24.51
2022-07-29T15:39:23.240Z,25.06
2022-07-29T15:41:53.814Z,24.85
2022-07-29T15:44:21.618Z,25.02
2022-07-29T15:47:04.740Z,24.59
2022-07-29T15:49:47.164Z,24.91
2022-07-29T15:52:25.806Z,24.80
2022-07-29T15:54:57.716Z,24.40
2022-07-29T15:57:25.497Z,24.58
2022-07-29T15:59:52.753Z,24.62
2022-07-29T16:02:20.069Z,24.79
2022-07-29T16:04:47.394Z,24.73
2022-07-29T16:07:16.278Z,24.75
2022-07-29T16:09:45.471Z,24.71
2022-07-29T16:12:17.994Z,24.30
2022-07-29T16:14:45.202Z,24.64
2022-07-29T16:17:14.419Z,24.41
2022-07-29T16:19:46.393Z,24.22
2022-07-29T16:22:13.513Z,24.25
2022-07-29T16:24:40.912Z,24.06
2022-07-29T16:27:08.014Z,24.34
2022-07-29T16:29:37.116Z,24.46
2022-07-29T16:32:05.344Z,24.22
2022-07-29T16:34:32.553Z,24.36
2022-07-29T16:36:59.827Z,24.04
2022-07-29T16:39:27.157Z,24.40
2022-07-29T16:41:58.295Z,24.25
2022-07-29T16:44:27.380Z,24.32
2022-07-29T16:46:56.070Z,24.43
2022-07-29T16:49:25.168Z,24.21
2022-07-29T16:51:53.829Z,24.20
2022-07-29T16:54:21.292Z,24.20
2022-07-29T16:56:48.432Z,24.24
2022-07-29T16:59:18.673Z,24.21
2022-07-29T17:01:48.692Z,24.23
2022-07-29T17:04:18.844Z,24.03
2022-07-29T17:06:46.380Z,24.07
2022-07-29T17:09:16.553Z,23.84
2022-07-29T17:11:53.508Z,24.00
2022-07-29T17:14:26.263Z,23.86
2022-07-29T17:17:00.294Z,23.92
2022-07-29T17:19:33.764Z,23.87
2022-07-29T17:22:09.506Z,23.74
2022-07-29T17:24:38.945Z,23.66
2022-07-29T17:27:07.480Z,23.79
2022-07-29T17:29:35.141Z,23.67
2022-07-29T17:32:02.294Z,23.34
2022-07-29T17:34:29.415Z,23.28
2022-07-29T17:36:56.838Z,23.42
2022-07-29T17:39:24.072Z,23.64
2022-07-29T17:41:51.656Z,23.42
2022-07-29T17:44:18.677Z,23.40
2022-07-29T17:46:46.295Z,23.48
2022-07-29T17:49:13.612Z,23.12
2022-07-29T17:51:40.623Z,23.13
2022-07-29T17:54:07.628Z,23.27
2022-07-29T17:56:34.796Z,23.25
2022-07-29T17:59:06.549Z,23.29
2022-07-29T18:01:34.119Z,23.19
2022-07-29T18:04:02.465Z,22.94
2022-07-29T18:06:29.709Z,22.87
2022-07-29T18:08:56.639Z,22.85
2022-07-29T18:11:23.799Z,23.01
2022-07-29T18:13:53.859Z,22.74
2022-07-29T18:16:21.383Z,22.95
2022-07-29T18:18:48.462Z,22.89
2022-07-29T18:21:16.245Z,22.80
2022-07-29T18:23:51.170Z,22.81
2022-07-29T18:26:18.153Z,22.64
2022-07-29T18:28:45.095Z,22.82
2022-07-29T18:31:13.602Z,22.81
2022-07-29T18:33:40.644Z,22.79
2022-07-29T18:36:11.605Z,22.58
2022-07-29T18:38:40.701Z,22.58
2022-07-29T18:41:07.697Z,22.45
2022-07-29T18:43:34.626Z,22.68
2022-07-29T18:46:02.116Z,22.69
2022-07-29T18:48:29.581Z,22.47
2022-07-29T18:50:56.561Z,22.69
2022-07-29T18:53:23.497Z,22.64
2022-07-29T18:55:51.212Z,22.61
2022-07-29T18:58:18.376Z,22.29
2022-07-29T19:00:45.905Z,22.50
2022-07-29T19:03:13.319Z,22.49
2022-07-29T19:05:40.501Z,22.29
2022-07-29T19:08:07.475Z,22.46
2022-07-29T19:10:34.419Z,22.39
2022-07-29T19:13:01.944Z,22.60
2022-07-29T19:15:29.244Z,22.37
2022-07-29T19:18:00.853Z,22.29
2022-07-29T19:20:28.631Z,22.54
2022-07-29T19:22:55.628Z,22.27
2022-07-29T19:25:23.334Z,21.81
2022-07-29T19:27:50.972Z,21.99
2022-07-29T19:30:18.615Z,22.24
2022-07-29T19:32:48.460Z,22.22
2022-07-29T19:35:25.539Z,22.23
2022-07-29T19:37:53.050Z,22.11
2022-07-29T19:40:20.562Z,22.23
2022-07-29T19:42:53.021Z,22.12
2022-07-29T19:45:21.957Z,22.29
2022-07-29T19:47:49.082Z,21.82
2022-07-29T19:50:16.808Z,22.08
2022-07-29T19:52:45.157Z,21.78
2022-07-29T19:55:12.111Z,21.80
2022-07-29T19:57:40.830Z,22.02
2022-07-29T20:00:11.261Z,21.78
2022-07-29T20:02:39.614Z,21.97
2022-07-29T20:05:07.084Z,21.56
2022-07-29T20:07:34.082Z,21.84
2022-07-29T20:10:01.064Z,21.66
2022-07-29T20:12:28.117Z,21.52
2022-07-29T20:14:55.090Z,21.72
2022-07-29T20:17:24.970Z,21.56
2022-07-29T20:19:52.981Z,21.33
2022-07-29T20:22:21.558Z,21.73
2022-07-29T20:24:48.986Z,21.51
2022-07-29T20:27:16.207Z,21.72
2022-07-29T20:29:43.294Z,21.56
2022-07-29T20:32:12.070Z,21.65
2022-07-29T20:34:41.546Z,21.46
2022-07-29T20:37:13.471Z,21.44
2022-07-29T20:39:42.877Z,21.64
2022-07-29T20:42:09.835Z,21.61
2022-07-29T20:44:37.022Z,21.37
2022-07-29T20:47:04.078Z,21.38
2022-07-29T20:49:31.054Z,21.19
2022-07-29T20:51:58.213Z,21.29
2022-07-29T20:54:25.376Z,21.45
2022-07-29T20:56:53.228Z,21.49
2022-07-29T20:59:20.468Z,21.47
2022-07-29T21:01:47.555Z,21.24
2022-07-29T21:04:14.964Z,21.22
2022-07-29T21:06:42.130Z,21.41
2022-07-29T21:09:09.048Z,21.41
2022-07-29T21:11:44.292Z,21.10
2022-07-29T21:14:30.753Z,21.36
2022-07-29T21:17:01.822Z,21.05
2022-07-29T21:19:29.221Z,21.12
2022-07-29T21:21:56.359Z,21.12
2022-07-29T21:24:23.361Z,21.25
2022-07-29T21:27:18.372Z,21.10
2022-07-29T21:29:38.240Z,21.04
2022-07-29T21:32:05.593Z,21.09
2022-07-29T21:34:32.616Z,20.99
2022-07-29T21:37:00.497Z,20.99
2022-07-29T21:39:28.117Z,20.79
2022-07-29T21:41:55.262Z,21.18
2022-07-29T21:44:22.442Z,21.14
2022-07-29T21:46:49.912Z,20.99
2022-07-29T21:49:16.995Z,20.93
2022-07-29T21:51:44.196Z,20.68
2022-07-29T21:54:11.747Z,20.84
2022-07-29T21:56:38.697Z,20.65
2022-07-29T21:59:05.944Z,20.99
2022-07-29T22:01:39.595Z,20.73
2022-07-29T22:04:07.242Z,20.75
2022-07-29T22:06:34.661Z,20.73
2022-07-29T22:09:01.621Z,20.64
2022-07-29T22:11:28.789Z,20.61
2022-07-29T22:13:55.731Z,20.75
2022-07-29T22:16:22.755Z,20.34
2022-07-29T22:18:50.016Z,20.46
2022-07-29T22:21:17.202Z,20.40
2022-07-29T22:23:44.417Z,20.45
2022-07-29T22:26:11.669Z,20.51
2022-07-29T22:28:38.632Z,20.39
2022-07-29T22:31:07.660Z,20.61
2022-07-29T22:33:34.916Z,20.60
2022-07-29T22:36:01.883Z,20.52
2022-07-29T22:38:28.836Z,20.42
2022-07-29T22:41:01.551Z,20.55
2022-07-29T22:43:30.277Z,20.52
2022-07-29T22:45:57.668Z,20.37
2022-07-29T22:48:24.714Z,20.32
2022-07-29T22:50:51.797Z,20.36
2022-07-29T22:53:18.951Z,20.19
2022-07-29T22:55:46.256Z,20.31
2022-07-29T22:58:13.365Z,20.17
2022-07-29T23:00:40.417Z,20.47
2022-07-29T23:03:07.354Z,20.08
2022-07-29T23:05:34.478Z,20.41
2022-07-29T23:08:01.786Z,20.17
2022-07-29T23:10:28.772Z,20.28
2022-07-29T23:12:55.701Z,19.93
2022-07-29T23:15:23.244Z,19.90
2022-07-29T23:17:50.179Z,20.19
2022-07-29T23:20:17.146Z,20.23
2022-07-29T23:22:44.727Z,19.88
2022-07-29T23:25:11.890Z,20.06
2022-07-29T23:27:38.813Z,20.29
2022-07-29T23:30:06.376Z,19.96
2022-07-29T23:32:33.341Z,20.16
2022-07-29T23:35:00.559Z,20.22
2022-07-29T23:37:28.287Z,20.18
2022-07-29T23:39:55.489Z,20.14
2022-07-29T23:42:22.698Z,20.11
2022-07-29T23:44:50.000Z,19.97
2022-07-29T23:47:17.183Z,19.93
2022-07-29T23:49:44.600Z,19.72
2022-07-29T23:52:11.865Z,19.66
2022-07-29T23:54:38.868Z,19.78
2022-07-29T23:57:05.918Z,19.92
2022-07-29T23:59:33.278Z,19.89
